• Join FlightAware (Why Join?)
  • Login
  • US Flag 
09:55AM EDT


 

Airport Tracker/Info


-or-


 

Live Flight TrackerFlight Track Log ✈ LXJ437 ✈ 22-Jun-2013 ✈ KSNA - MMES / ESE

Flight Track Log - Related Links

Times and Time Zones

All times are in EDT time to prevent confusion due to time zone crossing. See the LXJ437 flight status page for this flight to view local times or setup timezone preferences in your user account.

Time Position Orientation Groundspeed Altitude Reporting Facility
EDT Latitude Longitude Course Direction KTS MPH feet Rate Location/Type
02:04PM 33.6553 -117.8819 192° South 164 189 1,400  Level Los Angeles Center
02:05PM 33.6025 -117.8956 192° South 207 238 3,800 2,220 Climbing Los Angeles Center
02:06PM 33.5297 -117.8756 167° South 270 311 6,000 2,880 Climbing Los Angeles Center
02:07PM 33.4553 -117.8283 152° Southeast 294 338 9,800 3,480 Climbing Los Angeles Center
02:08PM 33.3719 -117.7744 152° Southeast 317 365 13,200 3,000 Climbing Los Angeles Center
02:09PM 33.2550 -117.6992 152° Southeast 373 429 16,000 2,460 Climbing Los Angeles Center
02:10PM 33.1642 -117.6119 141° Southeast 403 464 18,400 1,440 Climbing Los Angeles Center
02:11PM 33.0764 -117.5139 137° Southeast 423 487 19,100 1,500 Climbing Los Angeles Center
02:13PM 32.9856 -117.4172 138° Southeast 431 496 21,600 1,740 Climbing Los Angeles Center
02:14PM 32.8917 -117.3183 138° Southeast 441 507 22,800 660 Climbing Los Angeles Center
02:15PM 32.7772 -117.2028 140° Southeast 451 519 23,000 60 Climbing Los Angeles Center
02:16PM 32.6828 -117.1039 139° Southeast 448 516 23,000  Level Los Angeles Center
02:17PM 32.5892 -117.0056 138° Southeast 451 519 23,000  Level Los Angeles Center
02:19PM 32.4821 -116.8992 151° Southeast  Level FlightAware Approximate
02:26PM 32.0240 -116.5993 151° Southeast  Level FlightAware Approximate
02:27PM 31.9634 -116.5484 157° South  Level FlightAware Approximate
02:28PM 31.8978 -116.5067 148° Southeast  Level FlightAware Approximate
02:29PM 31.8329 -116.4630 153° Southeast  Level FlightAware Approximate
02:30PM 31.7833 -116.4333 153° Southeast  Level FlightAware Approximate
02:31PM 31.7895 -116.5210 153° Southeast  Level Estimated
02:32PM 31.7833 -116.4333 153° Southeast  Level FlightAware Approximate
02:33PM 31.7895 -116.5210 153° Southeast  Level Estimated
02:34PM 31.7833 -116.4333 153° Southeast  Level FlightAware Approximate
02:35PM 31.7895 -116.5210 153° Southeast  Level Estimated
02:36PM 31.7833 -116.4333 153° Southeast  Level FlightAware Approximate
02:37PM 31.7895 -116.5210 153° Southeast  Level Estimated
02:38PM 31.7833 -116.4333 153° Southeast  Level FlightAware Approximate
02:39PM 31.7895 -116.5210 153° Southeast  Level Estimated
02:40PM 31.7833 -116.4333 153° Southeast  Level FlightAware Approximate
02:41PM 31.7895 -116.5210 153° Southeast  Level Estimated
02:42PM 31.7833 -116.4333 153° Southeast  Level FlightAware Approximate
02:43PM 31.7895 -116.5210 153° Southeast  Level Estimated
02:44PM 31.7833 -116.4333 153° Southeast  Level FlightAware Approximate
02:45PM 31.7895 -116.5210 153° Southeast  Level Estimated
02:46PM 31.7833 -116.4333 153° Southeast  Level FlightAware Approximate
02:47PM 31.7895 -116.5210 153° Southeast  Level Estimated
02:48PM 31.7833 -116.4333 153° Southeast  Level FlightAware Approximate
02:49PM 31.7895 -116.5210 153° Southeast  Level Estimated
02:50PM 31.7833 -116.4333 153° Southeast  Level FlightAware Approximate
02:51PM 31.7895 -116.5210 153° Southeast  Level Estimated